Time;durP1;ratioP1;P1;durP2;ratioP2;P2;SDS_P1;SDS_P2;PMS_P1;PMS_P2;Temp;Humidity;BMP_temperature;BMP_pressure;BME280_temperature;BME280_humidity;BME280_pressure;Samples;Min_cycle;Max_cycle;Signal;HPM_P1;HPM_P2
2022/08/12 00:43:37;;;;;;;1.60;1.50;;;28.70;28.70;;;;;;5110131;27;45259;-72
2022/08/12 00:48:48;;;;;;;1.70;1.60;;;28.70;28.80;;;;;;5109787;27;45203;-72
2022/08/12 00:51:15;;;;;;;2.05;1.70;;;28.70;28.70;;;;;;5109600;27;45137;-72
2022/08/12 00:53:43;;;;;;;2.30;1.50;;;28.60;28.90;;;;;;5109781;27;45319;-72
2022/08/12 00:56:10;;;;;;;2.33;1.70;;;28.60;28.90;;;;;;5109849;27;45337;-72
2022/08/12 00:58:37;;;;;;;1.83;1.60;;;28.60;28.90;;;;;;5109615;27;45432;-72
2022/08/12 01:01:05;;;;;;;1.67;1.58;;;28.60;28.80;;;;;;5109406;27;45248;-72
2022/08/12 01:11:27;;;;;;;1.52;1.42;;;28.60;28.70;;;;;;5109068;27;45271;-72
2022/08/12 01:11:50;;;;;;;1.77;1.67;;;28.50;28.80;;;;;;5105846;27;45307;-72
2022/08/12 01:14:17;;;;;;;1.73;1.52;;;28.50;28.90;;;;;;5109333;27;45149;-73
2022/08/12 01:16:44;;;;;;;2.67;1.52;;;28.50;28.80;;;;;;5109494;27;45403;-72
2022/08/12 01:19:11;;;;;;;1.73;1.63;;;28.50;28.90;;;;;;5109022;27;45486;-72
2022/08/12 01:21:54;;;;;;;1.50;1.40;;;28.40;29.00;;;;;;5108363;27;45298;-72
2022/08/12 01:24:43;;;;;;;1.67;1.40;;;28.40;29.00;;;;;;5109228;27;45275;-72
2022/08/12 01:27:10;;;;;;;2.15;1.63;;;28.40;29.10;;;;;;5109247;27;45212;-72
2022/08/12 01:29:42;;;;;;;2.13;1.60;;;28.40;29.00;;;;;;5113858;27;45418;-73
2022/08/12 01:32:10;;;;;;;1.73;1.60;;;28.40;29.20;;;;;;5129521;27;45355;-73
2022/08/12 01:34:38;;;;;;;1.60;1.50;;;28.40;29.10;;;;;;5129390;27;45177;-72
2022/08/12 01:37:06;;;;;;;3.13;1.70;;;28.40;29.10;;;;;;5128890;27;45567;-72
2022/08/12 01:39:34;;;;;;;1.40;1.35;;;28.30;29.10;;;;;;5129300;27;45617;-72
2022/08/12 01:42:03;;;;;;;1.73;1.63;;;28.30;29.10;;;;;;5129449;27;45350;-72
2022/08/12 01:44:30;;;;;;;1.50;1.40;;;28.40;29.30;;;;;;5126766;27;45140;-72
2022/08/12 01:47:02;;;;;;;1.88;1.77;;;28.30;29.20;;;;;;5129540;27;45388;-73
2022/08/12 01:49:43;;;;;;;1.83;1.40;;;28.30;29.30;;;;;;5129212;27;46639;-72
2022/08/12 01:52:17;;;;;;;1.33;1.33;;;28.30;29.30;;;;;;5117203;27;45317;-73
2022/08/12 01:54:44;;;;;;;1.50;1.40;;;28.30;29.40;;;;;;5108710;27;45305;-72
2022/08/12 01:57:15;;;;;;;1.60;1.50;;;28.20;29.30;;;;;;5108797;27;45212;-72
2022/08/12 01:59:49;;;;;;;1.67;1.42;;;28.20;29.40;;;;;;5108486;27;46404;-73
2022/08/12 02:02:17;;;;;;;1.65;1.55;;;28.20;29.40;;;;;;5108488;27;45292;-72
2022/08/12 02:13:56;;;;;;;1.80;1.60;;;28.20;29.40;;;;;;5108653;27;45361;-73
2022/08/12 02:16:31;;;;;;;1.52;1.42;;;28.10;29.50;;;;;;5108370;27;45272;-72
2022/08/12 02:19:06;;;;;;;1.50;1.40;;;28.10;29.50;;;;;;5108484;27;45233;-72
2022/08/12 02:21:37;;;;;;;1.90;1.40;;;28.10;29.50;;;;;;5108040;27;45722;-72
2022/08/12 02:24:04;;;;;;;1.95;1.75;;;28.10;29.40;;;;;;5107552;27;45208;-73
2022/08/12 02:26:32;;;;;;;1.50;1.40;;;28.10;29.40;;;;;;5108388;27;45130;-72
2022/08/12 02:29:00;;;;;;;1.95;1.52;;;28.10;29.50;;;;;;5107650;27;45292;-72
2022/08/12 02:31:27;;;;;;;1.50;1.40;;;28.10;29.50;;;;;;5107447;27;45322;-72
2022/08/12 02:33:54;;;;;;;1.40;1.30;;;28.00;29.60;;;;;;5107888;27;45235;-72
2022/08/12 02:36:21;;;;;;;2.47;1.40;;;28.00;29.50;;;;;;5107797;27;45205;-72
2022/08/12 02:38:48;;;;;;;1.38;1.27;;;28.00;29.50;;;;;;5108233;27;45455;-72
2022/08/12 02:41:15;;;;;;;1.73;1.40;;;28.00;29.50;;;;;;5107584;27;45285;-72
2022/08/12 02:43:46;;;;;;;1.27;1.17;;;28.00;29.60;;;;;;5107821;27;45318;-72
2022/08/12 02:46:14;;;;;;;1.48;1.38;;;27.90;29.50;;;;;;5107985;27;45178;-72
2022/08/12 02:48:46;;;;;;;1.63;1.52;;;27.90;29.60;;;;;;5107887;27;45263;-72
2022/08/12 02:51:14;;;;;;;1.63;1.52;;;27.90;29.50;;;;;;5111265;27;46381;-72
2022/08/12 02:53:40;;;;;;;1.52;1.48;;;27.90;29.50;;;;;;5128341;27;45218;-72
2022/08/12 02:56:07;;;;;;;1.48;1.38;;;27.90;29.50;;;;;;5128421;27;45321;-72
2022/08/12 02:58:35;;;;;;;1.73;1.42;;;27.90;29.50;;;;;;5128563;27;45168;-73
2022/08/12 03:01:03;;;;;;;1.50;1.40;;;27.90;29.60;;;;;;5128203;27;46368;-72
2022/08/12 03:03:32;;;;;;;2.33;1.90;;;27.90;29.50;;;;;;5128032;27;45309;-72
2022/08/12 03:05:59;;;;;;;1.50;1.30;;;27.80;29.50;;;;;;5128265;27;45231;-72
2022/08/12 03:08:30;;;;;;;1.67;1.40;;;27.80;29.50;;;;;;5128310;27;45406;-72
2022/08/12 03:10:57;;;;;;;1.40;1.30;;;27.80;29.50;;;;;;5127945;27;46310;-72
2022/08/12 03:13:26;;;;;;;1.40;1.30;;;27.80;29.50;;;;;;5127911;27;45190;-72
2022/08/12 03:15:54;;;;;;;1.27;1.20;;;27.80;29.50;;;;;;5128313;27;45258;-72
2022/08/12 03:18:23;;;;;;;1.50;1.40;;;27.80;29.60;;;;;;5128198;27;45501;-72
2022/08/12 03:20:51;;;;;;;1.92;1.42;;;27.70;29.50;;;;;;5127705;27;47303;-72
2022/08/12 03:23:18;;;;;;;1.40;1.30;;;27.70;29.50;;;;;;5127521;27;45168;-72
2022/08/12 03:25:45;;;;;;;1.30;1.20;;;27.70;29.50;;;;;;5128070;27;45270;-72
2022/08/12 03:28:48;;;;;;;1.20;1.10;;;27.70;29.50;;;;;;5127938;27;45441;-72
2022/08/12 03:31:01;;;;;;;2.20;1.60;;;27.70;29.50;;;;;;5110072;27;45147;-72
2022/08/12 03:33:29;;;;;;;1.40;1.33;;;27.70;29.50;;;;;;5107119;27;45154;-72
2022/08/12 03:35:57;;;;;;;1.33;1.23;;;27.60;29.50;;;;;;5108189;27;45426;-72
2022/08/12 03:38:25;;;;;;;1.50;1.40;;;27.70;29.60;;;;;;5110930;27;45340;-72
2022/08/12 04:00:22;;;;;;;1.70;1.60;;;27.40;29.90;;;;;;5128706;27;45309;-72
2022/08/12 04:02:58;;;;;;;2.20;1.50;;;27.40;29.90;;;;;;5130804;27;45432;-72
2022/08/12 04:05:25;;;;;;;1.65;1.52;;;27.40;30.00;;;;;;5131083;27;45218;-72
2022/08/12 04:07:53;;;;;;;1.40;1.30;;;27.40;30.00;;;;;;5130941;27;45121;-72
2022/08/12 04:10:20;;;;;;;1.60;1.50;;;27.40;30.10;;;;;;5131296;27;45277;-73
2022/08/12 04:15:39;;;;;;;3.60;1.50;;;27.40;30.20;;;;;;5128076;27;45321;-72
2022/08/12 04:18:06;;;;;;;3.10;1.40;;;27.40;30.20;;;;;;5130948;27;45264;-72
2022/08/12 04:20:33;;;;;;;1.70;1.60;;;27.40;30.20;;;;;;5130910;27;45332;-72
2022/08/12 04:23:03;;;;;;;2.28;1.40;;;27.40;30.20;;;;;;5130431;27;46361;-72
2022/08/12 04:25:30;;;;;;;1.92;1.80;;;27.30;30.20;;;;;;5130083;27;45341;-73
2022/08/12 04:27:57;;;;;;;1.98;1.75;;;27.30;30.30;;;;;;5130634;27;45395;-72
2022/08/12 04:30:23;;;;;;;1.73;1.50;;;27.30;31.00;;;;;;5119012;27;45381;-72
2022/08/12 04:32:50;;;;;;;1.80;1.70;;;27.30;30.40;;;;;;5109637;27;46400;-72
2022/08/12 04:35:17;;;;;;;2.67;1.80;;;27.20;30.30;;;;;;5109892;27;45184;-72
2022/08/12 04:37:44;;;;;;;1.45;1.35;;;27.20;30.40;;;;;;5109955;27;45325;-73
2022/08/12 04:40:13;;;;;;;2.10;1.80;;;27.20;30.50;;;;;;5109979;27;45411;-73
2022/08/12 04:42:40;;;;;;;2.33;1.48;;;27.20;30.60;;;;;;5109679;27;45950;-73
2022/08/12 04:45:08;;;;;;;1.70;1.48;;;27.20;30.80;;;;;;5109899;27;45229;-73
2022/08/12 04:47:34;;;;;;;1.77;1.67;;;27.20;30.80;;;;;;5109645;27;45256;-73
2022/08/12 04:50:01;;;;;;;1.70;1.60;;;27.10;30.80;;;;;;5110046;27;45328;-72
2022/08/12 04:52:29;;;;;;;3.75;2.08;;;27.10;30.90;;;;;;5123922;27;46894;-73
2022/08/12 04:54:55;;;;;;;2.28;1.58;;;27.10;31.00;;;;;;5130323;27;45128;-73
2022/08/12 04:57:24;;;;;;;1.70;1.60;;;27.00;31.10;;;;;;5130510;27;45219;-72
2022/08/12 04:59:50;;;;;;;3.08;2.00;;;27.10;31.10;;;;;;5130488;27;45394;-73
2022/08/12 05:02:17;;;;;;;2.63;1.67;;;27.00;31.10;;;;;;5130124;27;46490;-72
2022/08/12 05:04:44;;;;;;;2.10;1.90;;;27.00;31.30;;;;;;5129917;27;45369;-72
2022/08/12 05:07:11;;;;;;;4.18;1.73;;;27.00;31.30;;;;;;5130368;27;45205;-72
2022/08/12 05:09:38;;;;;;;2.10;1.63;;;27.00;31.30;;;;;;5130049;27;45123;-72
2022/08/12 05:12:06;;;;;;;1.73;1.63;;;27.00;31.20;;;;;;5129365;27;45337;-72
2022/08/12 05:14:34;;;;;;;2.88;1.70;;;27.00;31.20;;;;;;5129809;27;45361;-72
2022/08/12 05:17:01;;;;;;;2.55;1.75;;;27.00;31.20;;;;;;5129920;27;45276;-72
2022/08/12 05:19:29;;;;;;;2.28;1.85;;;26.90;31.10;;;;;;5130187;27;45478;-72
2022/08/12 05:21:55;;;;;;;2.50;1.60;;;27.00;31.10;;;;;;5129604;27;45446;-72
2022/08/12 05:24:22;;;;;;;1.83;1.60;;;27.00;31.10;;;;;;5129669;27;45318;-72
2022/08/12 05:26:50;;;;;;;1.70;1.60;;;26.90;31.00;;;;;;5129926;27;45309;-72
2022/08/12 05:29:17;;;;;;;1.55;1.45;;;26.90;31.00;;;;;;5127407;27;45237;-72
2022/08/12 05:31:48;;;;;;;1.80;1.70;;;26.90;31.10;;;;;;5108717;27;46374;-72
2022/08/12 05:34:15;;;;;;;2.05;1.70;;;26.90;31.10;;;;;;5108865;27;45294;-72
2022/08/12 05:36:43;;;;;;;1.92;1.80;;;26.80;31.10;;;;;;5108734;27;45215;-72
2022/08/12 05:39:09;;;;;;;2.63;1.80;;;26.80;31.10;;;;;;5109270;27;45172;-72
2022/08/12 05:41:36;;;;;;;2.55;1.55;;;26.80;31.20;;;;;;5108723;27;46423;-72
2022/08/12 05:44:05;;;;;;;2.13;1.80;;;26.80;31.20;;;;;;5108674;27;45331;-72
2022/08/12 05:46:32;;;;;;;1.80;1.67;;;26.80;31.30;;;;;;5108849;27;45114;-72
2022/08/12 05:49:00;;;;;;;1.73;1.60;;;26.80;31.20;;;;;;5108914;27;45248;-72
2022/08/12 05:51:28;;;;;;;5.68;1.85;;;26.80;31.50;;;;;;5114267;27;46612;-72
2022/08/12 05:53:55;;;;;;;3.03;2.00;;;26.80;31.40;;;;;;5129015;27;45255;-72
2022/08/12 05:56:23;;;;;;;4.13;1.98;;;26.70;31.60;;;;;;5129362;27;45132;-72
2022/08/12 05:58:51;;;;;;;2.03;1.75;;;26.70;31.60;;;;;;5128273;27;45287;-72
2022/08/12 06:01:17;;;;;;;2.42;1.75;;;26.80;31.70;;;;;;5128569;27;45369;-72
2022/08/12 06:03:44;;;;;;;2.30;1.75;;;26.70;31.70;;;;;;5129014;27;45297;-72
2022/08/12 06:06:14;;;;;;;3.00;1.92;;;26.70;31.70;;;;;;5129270;27;45194;-72
2022/08/12 06:08:47;;;;;;;4.57;1.67;;;26.70;31.80;;;;;;5129249;27;45413;-72
2022/08/12 06:11:14;;;;;;;2.25;1.90;;;26.80;31.90;;;;;;5128926;27;46827;-72
2022/08/12 06:13:42;;;;;;;2.42;1.85;;;26.70;31.80;;;;;;5128937;27;45486;-72
2022/08/12 06:16:09;;;;;;;6.00;2.00;;;26.70;31.90;;;;;;5129200;27;45271;-73
2022/08/12 06:18:38;;;;;;;3.28;1.88;;;26.80;31.90;;;;;;5129126;27;45181;-72
2022/08/12 06:21:06;;;;;;;3.92;2.03;;;26.80;32.00;;;;;;5128773;27;45482;-73
2022/08/12 06:23:34;;;;;;;3.30;1.75;;;26.80;32.00;;;;;;5128858;27;45252;-73
2022/08/12 06:26:01;;;;;;;3.60;1.70;;;26.80;32.00;;;;;;5129019;27;45180;-73
2022/08/12 06:28:29;;;;;;;3.05;2.00;;;26.80;32.00;;;;;;5128979;27;45318;-73
2022/08/12 06:30:56;;;;;;;4.40;1.98;;;26.80;32.00;;;;;;5112212;27;46403;-72
2022/08/12 06:33:23;;;;;;;3.00;1.80;;;26.80;32.00;;;;;;5107872;27;45276;-72
2022/08/12 06:35:50;;;;;;;4.95;1.83;;;26.80;31.80;;;;;;5108071;27;45240;-73
2022/08/12 06:38:17;;;;;;;2.03;1.77;;;26.80;31.80;;;;;;5108141;27;45400;-73
2022/08/12 06:43:31;;;;;;;2.72;1.65;;;26.80;31.90;;;;;;5108344;27;45263;-73
2022/08/12 06:45:58;;;;;;;1.80;1.70;;;26.80;31.90;;;;;;5108072;27;45309;-73
2022/08/12 06:48:26;;;;;;;2.22;1.75;;;26.90;32.10;;;;;;5107884;27;45406;-73
2022/08/12 06:50:53;;;;;;;2.42;2.00;;;26.90;32.10;;;;;;5108340;27;46742;-73
2022/08/12 06:53:20;;;;;;;2.50;1.98;;;26.90;32.20;;;;;;5128509;27;45205;-73
2022/08/12 06:55:48;;;;;;;2.17;1.70;;;26.90;32.30;;;;;;5127991;27;45261;-73
2022/08/12 06:58:15;;;;;;;2.53;1.90;;;26.90;32.30;;;;;;5128537;27;45423;-73
2022/08/12 07:00:45;;;;;;;2.10;1.90;;;26.90;32.30;;;;;;5128215;27;45328;-73
2022/08/12 07:03:19;;;;;;;2.42;1.67;;;26.90;32.20;;;;;;5128235;27;45259;-73
2022/08/12 07:05:46;;;;;;;3.92;1.55;;;26.90;32.20;;;;;;5128418;27;45305;-72
2022/08/12 07:08:14;;;;;;;3.80;1.73;;;26.90;32.20;;;;;;5128445;27;45370;-73
2022/08/12 07:10:42;;;;;;;1.65;1.55;;;26.90;32.10;;;;;;5126738;27;45228;-72
2022/08/12 07:13:10;;;;;;;1.83;1.70;;;27.00;32.20;;;;;;5127858;27;45247;-73
2022/08/12 07:15:38;;;;;;;2.20;1.65;;;26.90;32.00;;;;;;5128277;27;45279;-73
2022/08/12 07:18:10;;;;;;;3.00;1.92;;;27.00;32.00;;;;;;5128115;27;45305;-73
2022/08/12 07:20:38;;;;;;;1.73;1.63;;;27.00;32.00;;;;;;5127814;27;46333;-73
2022/08/12 07:23:05;;;;;;;1.65;1.50;;;27.00;31.90;;;;;;5127707;27;45317;-73
2022/08/12 07:25:33;;;;;;;4.35;1.75;;;27.00;31.80;;;;;;5127965;27;45137;-73
2022/08/12 07:28:02;;;;;;;3.55;1.90;;;27.00;31.80;;;;;;5128137;27;45315;-73
2022/08/12 07:30:31;;;;;;;2.47;1.88;;;27.00;31.80;;;;;;5115077;27;45468;-73
2022/08/12 07:33:00;;;;;;;2.17;1.70;;;27.00;31.90;;;;;;5107069;27;45157;-73
2022/08/12 07:35:27;;;;;;;2.75;1.58;;;27.00;32.00;;;;;;5106776;27;45326;-73
2022/08/12 07:37:54;;;;;;;1.63;1.52;;;27.00;32.20;;;;;;5107120;27;45319;-73
2022/08/12 07:40:21;;;;;;;1.75;1.63;;;27.00;32.20;;;;;;5106983;27;46389;-73
2022/08/12 07:42:48;;;;;;;2.03;1.30;;;27.10;32.20;;;;;;5106933;27;45183;-73
2022/08/12 07:45:15;;;;;;;2.65;1.90;;;27.10;32.20;;;;;;5106929;27;45210;-73
2022/08/12 07:47:43;;;;;;;2.85;1.65;;;27.10;32.20;;;;;;5106955;27;45416;-73
2022/08/12 07:50:11;;;;;;;1.90;1.50;;;27.10;32.20;;;;;;5106124;27;45313;-73
2022/08/12 07:52:40;;;;;;;2.05;1.50;;;27.10;32.20;;;;;;5119872;27;45418;-72
2022/08/12 07:55:07;;;;;;;1.70;1.60;;;27.10;32.30;;;;;;5127578;27;45270;-74
2022/08/12 07:57:34;;;;;;;1.85;1.70;;;27.10;32.50;;;;;;5127542;27;45323;-72
2022/08/12 08:00:04;;;;;;;4.13;1.77;;;27.20;32.60;;;;;;5127489;27;46486;-72
2022/08/12 08:02:32;;;;;;;2.95;1.40;;;27.20;32.50;;;;;;5127370;27;45297;-72
2022/08/12 08:05:00;;;;;;;1.40;1.30;;;27.20;32.60;;;;;;5127581;27;45289;-73
2022/08/12 08:07:28;;;;;;;2.70;1.73;;;27.20;32.60;;;;;;5127707;27;45206;-72
2022/08/12 08:09:56;;;;;;;2.10;1.90;;;27.20;32.60;;;;;;5127065;27;45263;-72
2022/08/12 08:15:08;;;;;;;3.75;1.95;;;27.30;32.70;;;;;;5123812;27;45333;-72
2022/08/12 08:17:36;;;;;;;2.38;1.70;;;27.20;33.40;;;;;;5127300;27;45251;-72
2022/08/12 08:20:05;;;;;;;3.28;1.70;;;27.20;33.60;;;;;;5127024;27;45446;-72
2022/08/12 08:22:33;;;;;;;3.45;1.80;;;27.20;33.70;;;;;;5129048;27;45322;-72
2022/08/12 08:24:59;;;;;;;5.30;2.10;;;27.10;33.80;;;;;;5130727;27;45313;-72
2022/08/12 08:27:26;;;;;;;2.67;1.83;;;27.10;33.70;;;;;;5130601;27;45313;-72
2022/08/12 08:29:54;;;;;;;1.88;1.77;;;27.10;33.70;;;;;;5122768;27;45484;-72
2022/08/12 08:32:21;;;;;;;1.83;1.50;;;27.20;33.80;;;;;;5109464;27;45306;-72
2022/08/12 08:34:47;;;;;;;1.77;1.60;;;27.20;33.60;;;;;;5109992;27;45306;-72
2022/08/12 08:37:15;;;;;;;4.82;1.98;;;27.20;33.30;;;;;;5109637;27;45347;-72
2022/08/12 08:39:42;;;;;;;4.22;1.90;;;27.20;33.10;;;;;;5109311;27;46390;-72
2022/08/12 08:44:57;;;;;;;1.83;1.55;;;27.30;32.80;;;;;;5107349;27;45206;-72
2022/08/12 08:47:24;;;;;;;2.42;1.60;;;27.30;32.70;;;;;;5110034;27;45271;-72
2022/08/12 08:49:51;;;;;;;1.90;1.40;;;27.40;32.70;;;;;;5108806;27;46194;-71
2022/08/12 08:52:24;;;;;;;3.63;1.70;;;27.40;32.50;;;;;;5121996;27;45187;-72
2022/08/12 08:54:50;;;;;;;3.00;1.70;;;27.40;32.40;;;;;;5130308;27;45313;-73
2022/08/12 08:57:17;;;;;;;1.60;1.50;;;27.40;32.20;;;;;;5130413;27;45177;-73
2022/08/12 08:59:44;;;;;;;1.63;1.52;;;27.40;32.10;;;;;;5129670;27;46192;-72
2022/08/12 09:02:11;;;;;;;4.43;1.60;;;27.50;32.10;;;;;;5129420;27;45355;-72
2022/08/12 09:04:38;;;;;;;1.48;1.38;;;27.60;31.90;;;;;;5129930;27;45342;-72
2022/08/12 09:07:04;;;;;;;1.75;1.40;;;27.70;31.00;;;;;;5129800;27;45433;-72
2022/08/12 09:09:36;;;;;;;2.80;1.70;;;27.80;30.70;;;;;;5129502;27;45534;-72
2022/08/12 09:14:47;;;;;;;5.70;1.50;;;27.90;29.20;;;;;;5127184;27;45270;-72
2022/08/12 09:17:14;;;;;;;1.50;1.40;;;27.90;28.90;;;;;;5129684;27;45369;-72
2022/08/12 09:19:41;;;;;;;2.05;1.33;;;28.00;28.80;;;;;;5129613;27;45305;-73
2022/08/12 09:22:08;;;;;;;2.03;1.35;;;28.10;28.60;;;;;;5129487;27;45141;-72
2022/08/12 09:24:36;;;;;;;1.15;1.15;;;28.10;28.20;;;;;;5129393;27;45150;-72
2022/08/12 09:27:05;;;;;;;1.35;1.25;;;28.10;28.10;;;;;;5129836;27;45474;-72
2022/08/12 09:29:32;;;;;;;1.58;1.20;;;28.20;28.10;;;;;;5124826;27;45907;-73
2022/08/12 09:31:59;;;;;;;3.80;1.38;;;28.20;28.10;;;;;;5108498;27;45333;-72
2022/08/12 09:34:28;;;;;;;1.45;1.35;;;28.20;27.90;;;;;;5107844;27;45423;-72
2022/08/12 09:36:55;;;;;;;1.40;1.30;;;28.30;27.80;;;;;;5108530;27;45341;-72
2022/08/12 09:39:22;;;;;;;1.75;1.40;;;28.30;28.20;;;;;;5108093;27;47589;-71
2022/08/12 09:45:19;;;;;;;1.65;1.55;;;28.40;28.00;;;;;;5106708;27;45268;-72
2022/08/12 09:47:27;;;;;;;2.65;1.20;;;28.50;27.80;;;;;;5108509;27;45362;-72
2022/08/12 09:49:54;;;;;;;1.73;1.45;;;28.60;27.60;;;;;;5107943;27;45272;-72
2022/08/12 09:52:22;;;;;;;1.40;1.30;;;28.60;27.30;;;;;;5121161;27;45374;-72
2022/08/12 09:54:48;;;;;;;1.30;1.17;;;28.70;27.10;;;;;;5128974;27;45341;-72
2022/08/12 09:57:19;;;;;;;2.58;1.45;;;28.70;27.20;;;;;;5128956;27;45428;-72
2022/08/12 09:59:46;;;;;;;1.60;1.50;;;28.70;26.90;;;;;;5128084;27;45185;-72
2022/08/12 10:02:12;;;;;;;1.35;1.25;;;28.80;26.80;;;;;;5128219;27;45426;-72
2022/08/12 10:04:47;;;;;;;1.70;1.25;;;28.80;26.70;;;;;;5128829;27;45465;-72
2022/08/12 10:07:14;;;;;;;1.55;1.30;;;28.80;26.50;;;;;;5128971;27;45330;-72
2022/08/12 10:09:41;;;;;;;1.50;1.40;;;28.90;26.40;;;;;;5128210;27;45247;-72
2022/08/12 10:14:53;;;;;;;1.35;1.23;;;28.90;26.50;;;;;;5125939;27;45215;-72
2022/08/12 10:17:22;;;;;;;1.38;1.20;;;29.00;26.60;;;;;;5125837;27;45346;-73
2022/08/12 10:19:51;;;;;;;4.47;1.30;;;29.00;26.60;;;;;;5128534;27;45506;-72
2022/08/12 10:22:18;;;;;;;2.70;1.60;;;29.10;27.50;;;;;;5128547;27;45215;-72
2022/08/12 10:29:35;;;;;;;1.48;1.38;;;29.10;27.10;;;;;;5128749;27;45300;-72
2022/08/12 10:30:19;;;;;;;1.55;1.20;;;29.20;26.80;;;;;;5117535;27;45166;-72
2022/08/12 10:32:57;;;;;;;1.33;1.23;;;29.20;26.50;;;;;;5107563;27;45338;-73
2022/08/12 10:35:30;;;;;;;1.67;1.58;;;29.30;26.50;;;;;;5107764;27;45193;-73
2022/08/12 10:37:57;;;;;;;1.42;1.33;;;29.30;26.70;;;;;;5108071;27;45270;-72
2022/08/12 10:40:23;;;;;;;1.50;1.40;;;29.40;26.50;;;;;;5107419;27;45592;-73
2022/08/12 10:45:36;;;;;;;1.40;1.30;;;29.50;26.40;;;;;;5106459;27;45248;-72
2022/08/12 10:48:04;;;;;;;1.40;1.30;;;29.50;25.90;;;;;;5107417;27;45241;-72
2022/08/12 10:50:31;;;;;;;1.42;1.23;;;29.60;25.80;;;;;;5105343;27;48669;-73
2022/08/12 10:52:59;;;;;;;3.08;1.20;;;29.60;25.80;;;;;;5125813;27;45247;-72
2022/08/12 10:55:27;;;;;;;1.30;1.05;;;29.70;25.80;;;;;;5128018;27;45258;-72
2022/08/12 10:57:53;;;;;;;2.72;1.08;;;29.70;25.50;;;;;;5127730;27;45478;-72
2022/08/12 11:00:20;;;;;;;1.40;1.30;;;29.80;25.40;;;;;;5127980;27;45232;-72
2022/08/12 11:02:53;;;;;;;1.67;1.33;;;29.80;24.90;;;;;;5127900;27;45217;-72
2022/08/12 11:05:20;;;;;;;3.58;1.45;;;29.90;24.90;;;;;;5127929;27;45321;-72
2022/08/12 11:07:49;;;;;;;1.38;1.20;;;29.90;24.80;;;;;;5127941;27;45548;-72
2022/08/12 11:10:17;;;;;;;1.17;1.00;;;30.00;24.70;;;;;;5127405;27;47510;-72
2022/08/12 11:12:46;;;;;;;1.30;1.20;;;30.00;24.70;;;;;;5125158;27;45387;-72
2022/08/12 11:15:13;;;;;;;5.32;1.17;;;30.10;24.50;;;;;;5128074;27;45260;-72
2022/08/12 11:17:40;;;;;;;1.13;1.02;;;30.20;24.30;;;;;;5128138;27;45338;-72
2022/08/12 11:20:10;;;;;;;3.03;1.00;;;30.30;24.30;;;;;;5124471;27;46429;-72
2022/08/12 11:22:37;;;;;;;1.42;1.30;;;30.30;24.50;;;;;;5127514;27;45413;-72
2022/08/12 11:25:08;;;;;;;3.55;1.23;;;30.40;24.50;;;;;;5128109;27;45204;-72
2022/08/12 11:27:34;;;;;;;2.35;1.13;;;30.50;24.20;;;;;;5127880;27;45584;-72
2022/08/12 11:30:01;;;;;;;1.60;1.10;;;30.50;24.20;;;;;;5119004;27;45420;-72
2022/08/12 11:32:28;;;;;;;3.45;1.30;;;30.60;24.10;;;;;;5106937;27;45181;-72
2022/08/12 11:34:55;;;;;;;2.20;1.30;;;30.70;24.10;;;;;;5107171;27;45208;-73
2022/08/12 11:37:23;;;;;;;1.20;1.10;;;30.80;24.00;;;;;;5107766;27;45261;-73
2022/08/12 11:39:50;;;;;;;1.23;1.13;;;30.80;24.00;;;;;;5107032;27;45325;-73
2022/08/12 11:42:17;;;;;;;1.25;1.20;;;30.90;23.90;;;;;;5106986;27;45425;-73
2022/08/12 11:44:44;;;;;;;3.08;1.50;;;30.90;23.40;;;;;;5107083;27;45271;-72
2022/08/12 11:47:10;;;;;;;1.73;1.27;;;30.90;23.80;;;;;;5107186;27;45247;-73
2022/08/12 11:49:37;;;;;;;2.15;1.48;;;31.00;23.60;;;;;;5106728;27;46398;-73
2022/08/12 11:52:05;;;;;;;1.30;1.30;;;31.10;23.60;;;;;;5116457;27;45297;-73
2022/08/12 11:54:33;;;;;;;1.40;1.13;;;31.10;23.50;;;;;;5124732;27;45327;-73
2022/08/12 11:57:00;;;;;;;1.27;1.17;;;31.20;23.70;;;;;;5129178;27;45446;-73
2022/08/12 11:59:27;;;;;;;1.48;1.10;;;31.30;23.70;;;;;;5130993;27;46479;-73
2022/08/12 12:01:54;;;;;;;1.67;1.10;;;31.30;23.80;;;;;;5130899;27;45419;-73
2022/08/12 12:04:20;;;;;;;1.45;0.90;;;31.40;23.50;;;;;;5131080;27;45293;-73
2022/08/12 12:06:47;;;;;;;1.38;1.27;;;31.50;23.30;;;;;;5130907;27;45260;-73
2022/08/12 12:09:14;;;;;;;1.13;1.02;;;31.50;23.30;;;;;;5130525;27;45217;-73
2022/08/12 12:11:43;;;;;;;1.20;1.20;;;31.50;23.00;;;;;;5128292;27;45253;-73
2022/08/12 12:14:10;;;;;;;2.97;1.35;;;31.60;23.20;;;;;;5130949;27;45294;-73
2022/08/12 12:16:36;;;;;;;1.45;1.30;;;31.60;23.50;;;;;;5131509;27;45286;-73
2022/08/12 12:19:04;;;;;;;1.25;1.15;;;31.60;23.10;;;;;;5130878;27;47262;-73
2022/08/12 12:21:31;;;;;;;1.63;1.38;;;31.70;23.00;;;;;;5130728;27;45264;-73
2022/08/12 12:23:58;;;;;;;1.30;1.20;;;31.80;22.70;;;;;;5131132;27;45508;-73
2022/08/12 12:26:24;;;;;;;2.65;1.30;;;31.90;22.70;;;;;;5131150;27;45463;-73
2022/08/12 12:28:53;;;;;;;2.03;1.25;;;32.00;22.80;;;;;;5130508;27;46336;-73
2022/08/12 12:31:19;;;;;;;1.10;1.10;;;32.00;22.40;;;;;;5130555;27;45230;-73
2022/08/12 12:33:46;;;;;;;1.60;1.50;;;32.00;22.60;;;;;;5130285;27;45195;-73
2022/08/12 12:36:13;;;;;;;1.80;1.40;;;32.00;22.50;;;;;;5130126;27;45319;-73
2022/08/12 12:38:40;;;;;;;1.40;1.33;;;32.00;22.50;;;;;;5127628;27;45416;-73
2022/08/12 12:41:07;;;;;;;1.17;1.10;;;32.10;22.30;;;;;;5130237;27;45321;-73
2022/08/12 12:43:34;;;;;;;1.45;1.33;;;32.00;22.30;;;;;;5130373;27;45204;-73
2022/08/12 12:46:02;;;;;;;1.25;1.15;;;32.10;22.10;;;;;;5130863;27;45559;-73
2022/08/12 12:48:28;;;;;;;1.88;1.13;;;32.20;22.40;;;;;;5130212;27;47358;-73
2022/08/12 12:53:37;;;;;;;1.42;1.15;;;32.40;22.10;;;;;;5109441;27;45215;-73
2022/08/12 12:56:04;;;;;;;1.25;1.20;;;32.40;21.90;;;;;;5109429;27;45557;-73
2022/08/12 12:58:31;;;;;;;1.25;1.15;;;32.50;21.90;;;;;;5108680;27;45257;-73
2022/08/12 13:00:58;;;;;;;2.17;1.30;;;32.60;22.10;;;;;;5109743;27;45426;-74
2022/08/12 13:03:26;;;;;;;1.17;1.08;;;32.60;22.10;;;;;;5109648;27;45251;-73
2022/08/12 13:05:59;;;;;;;1.00;1.00;;;32.70;21.30;;;;;;5109279;27;45400;-72
2022/08/12 13:08:26;;;;;;;3.05;1.02;;;32.60;21.20;;;;;;5108950;27;45343;-73
2022/08/12 13:10:53;;;;;;;1.38;1.08;;;32.70;21.50;;;;;;5108810;27;45312;-72
2022/08/12 13:13:20;;;;;;;3.08;1.27;;;32.70;21.50;;;;;;5109402;27;45235;-73
2022/08/12 13:15:48;;;;;;;1.30;1.20;;;32.70;21.30;;;;;;5109573;27;45257;-73
2022/08/12 13:18:15;;;;;;;2.28;1.40;;;32.70;21.10;;;;;;5114628;27;45471;-73
2022/08/12 13:20:47;;;;;;;1.20;1.20;;;32.80;21.10;;;;;;5115798;27;45280;-73
2022/08/12 13:23:18;;;;;;;1.60;0.95;;;32.80;21.20;;;;;;5126329;27;45261;-73
2022/08/12 13:25:46;;;;;;;1.80;1.20;;;32.90;21.00;;;;;;5127605;27;45251;-73
2022/08/12 13:28:20;;;;;;;2.83;1.20;;;32.90;20.90;;;;;;5109208;27;45379;-73
2022/08/12 13:30:48;;;;;;;1.95;1.23;;;33.00;21.00;;;;;;5124221;27;45279;-73
2022/08/12 13:33:15;;;;;;;1.23;1.08;;;33.10;21.10;;;;;;5129804;27;45259;-73
2022/08/12 13:35:42;;;;;;;1.33;1.23;;;33.20;20.90;;;;;;5126999;27;45529;-73
2022/08/12 13:38:10;;;;;;;1.13;1.08;;;33.20;20.60;;;;;;5129365;27;46428;-73
2022/08/12 13:40:39;;;;;;;1.02;1.00;;;33.30;20.90;;;;;;5129364;27;45430;-73
2022/08/12 13:43:06;;;;;;;1.20;1.10;;;33.40;20.80;;;;;;5129932;27;45194;-73
2022/08/12 13:45:33;;;;;;;1.55;1.13;;;33.50;21.40;;;;;;5129966;27;45164;-73
2022/08/12 13:48:01;;;;;;;1.52;1.13;;;33.50;21.10;;;;;;5126687;27;45333;-73
2022/08/12 13:50:31;;;;;;;1.30;1.20;;;33.50;21.10;;;;;;5129111;27;45237;-74
2022/08/12 13:52:58;;;;;;;1.95;1.20;;;33.50;20.70;;;;;;5126171;27;45203;-73
2022/08/12 13:55:27;;;;;;;3.13;1.30;;;33.50;20.70;;;;;;5129484;27;45356;-73
2022/08/12 13:57:54;;;;;;;2.65;1.50;;;33.50;21.20;;;;;;5128986;27;45229;-73
2022/08/12 14:00:21;;;;;;;1.30;1.10;;;33.60;20.30;;;;;;5129452;27;45180;-73
2022/08/12 14:02:48;;;;;;;1.30;1.20;;;33.70;20.40;;;;;;5124023;27;45328;-73
2022/08/12 14:05:16;;;;;;;0.95;0.95;;;33.60;20.00;;;;;;5119176;27;45406;-73
2022/08/12 14:07:56;;;;;;;1.20;1.10;;;33.60;19.90;;;;;;5122079;27;46644;-74
2022/08/12 14:10:39;;;;;;;1.10;1.10;;;33.50;19.90;;;;;;5124080;27;45152;-73
2022/08/12 14:13:09;;;;;;;2.90;1.70;;;33.40;20.00;;;;;;5127784;27;45506;-74
2022/08/12 14:15:37;;;;;;;2.83;1.80;;;33.40;19.90;;;;;;5115927;27;45479;-74
2022/08/12 14:18:11;;;;;;;3.55;1.85;;;33.40;19.80;;;;;;5122946;27;46650;-73
2022/08/12 14:20:38;;;;;;;2.13;1.10;;;33.50;20.00;;;;;;5127956;27;45259;-74
2022/08/12 14:23:06;;;;;;;1.35;1.25;;;33.60;19.70;;;;;;5128369;27;45209;-73
2022/08/12 14:25:32;;;;;;;2.70;1.10;;;33.60;19.50;;;;;;5128887;27;45615;-73
2022/08/12 14:28:05;;;;;;;1.95;1.02;;;33.50;19.40;;;;;;5127940;27;46355;-73
2022/08/12 14:30:34;;;;;;;1.20;1.10;;;33.70;19.50;;;;;;5128291;27;45234;-73
2022/08/12 14:33:01;;;;;;;1.13;1.05;;;33.70;19.80;;;;;;5128510;27;45319;-72
2022/08/12 14:35:28;;;;;;;0.90;0.90;;;33.60;19.60;;;;;;5127433;27;45330;-72
2022/08/12 14:37:55;;;;;;;1.65;1.08;;;33.50;19.80;;;;;;5124858;27;45625;-72
2022/08/12 14:40:21;;;;;;;0.93;0.90;;;33.40;19.90;;;;;;5127891;27;45456;-73